Hlavní strana
METAR-TAF:

METAR-TAF

Letiště :

Kastamonu, Turecko

zeměpisná šířka: 41-19-01N, zeměpisná délka: 33-47-46E, výška: 1073 m

METAR: chybějící

Čas: 05:42 (02:42 UTC)

Předpověď počasí

Zpráva byla vytvořena před 13 hodinami a 2 minutami, v 13:40 UTC
Předpověď platná od 04 v 15 UTC do 04 v 24 UTC
Východojihovýchodní vítr 4 kt
Viditelnost 10 km a více
Polojasno ve výšce 3600 ft
Oblačno až skoro zataženo ve výšce 10000 ft
Změna
od 04 v 18 UTC do 04 v 20 UTC
Polojasno ve výšce 1200 ft
Oblačno až skoro zataženo ve výšce 3000 ft
Oblačno až skoro zataženo ve výšce 9000 ft
slabé dešťové přeháňky

TAF: LTAL 041340Z 0415/0424 12004KT 9999 SCT036 BKN100 BECMG 0418/0420 -SHRA SCT012 BKN030 BKN090

Stav a předpovědi počasí z více než 4 000 letišť (zprávy METAR a TAF).

Červené a žluté tečky na mapě představují dostupné meteorologické stanice.

Když kurzor umístíte na tečku, zobrazí se název stanice.

Pak kliknutím zobrazíte stav a předpověď počasí.

Chcete-li změnit mapu, kliknutím na zelené tlačítko se znaménkem +mapu přiblížíte, kliknutím na zelené tlačítko se znaménkem – mapu oddálíte a kliknutím na zelené šipky přejdete na sousední mapy.


METAR-TAF: